Terminal Aerodrome Forecast
Issued by NWS

Home | Current Version | Previous Version | Text Only | Print | Product List | Glossary On
Versions: 1 2 3 4 5 6 7 8 9 10 11 12 13 14 15 16
000
FTUS42 KMLB 010520
TAFLEE
TAF
KLEE 010520Z 0106/0206 00000KT P6SM SCT250
     FM011400 21003KT P6SM FEW030
     FM012100 17007KT P6SM VCTS SCT040CB
     FM020200 15003KT P6SM SCT050 SCT100 BKN250=

USA.gov is the U.S. government's official web portal to all federal, state and local government web resources and services.